createdAt,value
2023-05-05T00:00:24.133Z,95253.00
2023-05-05T00:01:24.158Z,95251.00
2023-05-05T00:02:24.269Z,95253.00
2023-05-05T00:03:24.295Z,95251.00
2023-05-05T00:04:24.323Z,95251.00
2023-05-05T00:05:24.268Z,95249.00
2023-05-05T00:06:24.343Z,95249.00
2023-05-05T00:07:24.317Z,95243.00
2023-05-05T00:08:24.373Z,95245.00
2023-05-05T00:09:24.403Z,95241.00
2023-05-05T00:10:24.438Z,95243.00
2023-05-05T00:11:24.461Z,95245.00
2023-05-05T00:12:24.512Z,95241.00
2023-05-05T00:13:24.570Z,95243.00
2023-05-05T00:14:24.580Z,95241.00
2023-05-05T00:15:24.618Z,95243.00
2023-05-05T00:16:24.673Z,95243.00
2023-05-05T00:17:24.708Z,95245.00
2023-05-05T00:18:24.728Z,95243.00
2023-05-05T00:19:24.713Z,95241.00
2023-05-05T00:20:24.764Z,95245.00
2023-05-05T00:21:24.812Z,95243.00
2023-05-05T00:22:24.850Z,95247.00
2023-05-05T00:23:24.890Z,95243.00
2023-05-05T00:24:24.888Z,95245.00
2023-05-05T00:25:24.916Z,95247.00
2023-05-05T00:26:24.962Z,95243.00
2023-05-05T00:27:25.021Z,95243.00
2023-05-05T00:28:25.062Z,95243.00
2023-05-05T00:29:25.102Z,95243.00
2023-05-05T00:30:25.128Z,95245.00
2023-05-05T00:31:25.189Z,95243.00
2023-05-05T00:32:25.216Z,95243.00
2023-05-05T00:33:25.211Z,95245.00
2023-05-05T00:34:25.270Z,95243.00
2023-05-05T00:35:25.268Z,95245.00
2023-05-05T00:36:25.320Z,95245.00
2023-05-05T00:37:25.372Z,95247.00
2023-05-05T00:38:25.359Z,95247.00
2023-05-05T00:39:25.407Z,95245.00
2023-05-05T00:40:25.457Z,95247.00
2023-05-05T00:41:25.480Z,95247.00
2023-05-05T00:42:25.943Z,95247.00
2023-05-05T00:43:25.526Z,95249.00
2023-05-05T00:44:25.566Z,95251.00
2023-05-05T00:45:25.597Z,95251.00
2023-05-05T00:46:25.681Z,95251.00
2023-05-05T00:47:25.718Z,95251.00
2023-05-05T00:48:25.718Z,95253.00
2023-05-05T00:49:25.755Z,95251.00
2023-05-05T00:50:25.798Z,95249.00
2023-05-05T00:51:25.828Z,95249.00
2023-05-05T00:52:25.879Z,95249.00
2023-05-05T00:53:25.918Z,95247.00
2023-05-05T00:54:25.915Z,95247.00
2023-05-05T00:55:25.981Z,95245.00
2023-05-05T00:56:25.984Z,95247.00
2023-05-05T00:57:26.052Z,95245.00
2023-05-05T00:58:26.069Z,95247.00
2023-05-05T00:59:26.082Z,95245.00
2023-05-05T01:00:26.139Z,95245.00
2023-05-05T01:01:26.151Z,95247.00
2023-05-05T01:02:26.338Z,95247.00
2023-05-05T01:03:26.330Z,95247.00
2023-05-05T01:04:26.997Z,95247.00
2023-05-05T01:05:26.303Z,95247.00
2023-05-05T01:06:26.347Z,95245.00
2023-05-05T01:07:26.387Z,95243.00
2023-05-05T01:08:26.400Z,95243.00
2023-05-05T01:09:26.459Z,95243.00
2023-05-05T01:10:26.718Z,95239.00
2023-05-05T01:11:26.483Z,95241.00
2023-05-05T01:12:26.509Z,95245.00
2023-05-05T01:13:26.613Z,95241.00
2023-05-05T01:14:26.568Z,95241.00
2023-05-05T01:15:26.632Z,95241.00
2023-05-05T01:16:26.654Z,95241.00
2023-05-05T01:17:26.744Z,95243.00
2023-05-05T01:18:26.697Z,95243.00
2023-05-05T01:19:26.738Z,95245.00
2023-05-05T01:20:26.778Z,95245.00
2023-05-05T01:21:26.799Z,95243.00
2023-05-05T01:22:26.853Z,95243.00
2023-05-05T01:23:26.876Z,95243.00
2023-05-05T01:24:26.877Z,95243.00
2023-05-05T01:25:26.937Z,95247.00
2023-05-05T01:26:26.968Z,95245.00
2023-05-05T01:27:27.011Z,95249.00
2023-05-05T01:28:27.041Z,95249.00
2023-05-05T01:29:27.049Z,95247.00
2023-05-05T01:30:27.077Z,95249.00
2023-05-05T01:31:27.180Z,95251.00
2023-05-05T01:32:27.188Z,95249.00
2023-05-05T01:33:27.208Z,95247.00
2023-05-05T01:34:27.232Z,95249.00
2023-05-05T01:35:27.223Z,95249.00
2023-05-05T01:36:27.296Z,95251.00
2023-05-05T01:37:27.312Z,95253.00
2023-05-05T01:38:27.348Z,95253.00
2023-05-05T01:39:27.365Z,95253.00
2023-05-05T01:40:27.424Z,95253.00
2023-05-05T01:41:27.445Z,95253.00
2023-05-05T01:42:27.482Z,95253.00
2023-05-05T01:43:27.484Z,95253.00
2023-05-05T01:44:27.550Z,95255.00
2023-05-05T01:45:27.592Z,95255.00
2023-05-05T01:46:27.609Z,95255.00
2023-05-05T01:47:27.667Z,95255.00
2023-05-05T01:48:27.674Z,95253.00
2023-05-05T01:49:27.705Z,95257.00
2023-05-05T01:50:27.735Z,95255.00
2023-05-05T01:51:27.819Z,95255.00
2023-05-05T01:52:27.810Z,95253.00
2023-05-05T01:53:27.845Z,95251.00
2023-05-05T01:54:27.850Z,95251.00
2023-05-05T01:55:27.888Z,95251.00
2023-05-05T01:56:27.912Z,95253.00
2023-05-05T01:57:27.978Z,95255.00
2023-05-05T01:58:28.004Z,95255.00
2023-05-05T01:59:28.030Z,95261.00
2023-05-05T02:00:28.037Z,95261.00
2023-05-05T02:01:28.113Z,95261.00
2023-05-05T02:02:28.553Z,95261.00
2023-05-05T02:03:28.150Z,95259.00
2023-05-05T02:04:28.166Z,95259.00
2023-05-05T02:05:28.216Z,95257.00
2023-05-05T02:06:28.228Z,95259.00
2023-05-05T02:07:28.270Z,95257.00
2023-05-05T02:08:28.312Z,95261.00
2023-05-05T02:09:28.353Z,95261.00
2023-05-05T02:10:28.374Z,95261.00
2023-05-05T02:11:28.383Z,95265.00
2023-05-05T02:12:28.448Z,95261.00
2023-05-05T02:13:28.486Z,95263.00
2023-05-05T02:14:28.464Z,95263.00
2023-05-05T02:15:28.533Z,95265.00
2023-05-05T02:16:28.554Z,95267.00
2023-05-05T02:17:29.030Z,95267.00
2023-05-05T02:18:28.689Z,95267.00
2023-05-05T02:19:28.628Z,95269.00
2023-05-05T02:20:28.724Z,95267.00
2023-05-05T02:21:28.715Z,95269.00
2023-05-05T02:22:28.773Z,95269.00
2023-05-05T02:23:28.790Z,95269.00
2023-05-05T02:24:28.809Z,95271.00
2023-05-05T02:25:28.829Z,95271.00
2023-05-05T02:26:28.908Z,95267.00
2023-05-05T02:27:28.932Z,95267.00
2023-05-05T02:28:28.982Z,95267.00
2023-05-05T02:29:28.980Z,95273.00
2023-05-05T02:30:29.007Z,95271.00
2023-05-05T02:31:29.157Z,95273.00
2023-05-05T02:32:29.092Z,95271.00
2023-05-05T02:33:29.120Z,95269.00
2023-05-05T02:34:29.129Z,95269.00
2023-05-05T02:35:29.137Z,95271.00
2023-05-05T02:36:29.205Z,95269.00
2023-05-05T02:37:29.218Z,95269.00
2023-05-05T02:38:29.273Z,95271.00
2023-05-05T02:39:29.274Z,95275.00
2023-05-05T02:40:29.330Z,95277.00
2023-05-05T02:41:29.340Z,95277.00
2023-05-05T02:42:29.400Z,95277.00
2023-05-05T02:43:29.431Z,95277.00
2023-05-05T02:44:29.457Z,95277.00
2023-05-05T02:45:29.460Z,95273.00
2023-05-05T02:46:29.541Z,95275.00
2023-05-05T02:47:29.557Z,95277.00
2023-05-05T02:48:29.959Z,95279.00
2023-05-05T02:49:29.592Z,95277.00
2023-05-05T02:50:29.656Z,95277.00
2023-05-05T02:51:29.680Z,95279.00
2023-05-05T02:52:29.724Z,95281.00
2023-05-05T02:53:29.754Z,95281.00
2023-05-05T02:54:29.761Z,95281.00
2023-05-05T02:55:29.837Z,95275.00
2023-05-05T02:56:29.856Z,95281.00
2023-05-05T02:57:29.870Z,95279.00
2023-05-05T02:58:29.904Z,95279.00
2023-05-05T02:59:29.948Z,95277.00
2023-05-05T03:00:29.960Z,95273.00
2023-05-05T03:01:30.034Z,95277.00
2023-05-05T03:02:30.086Z,95273.00
2023-05-05T03:03:30.602Z,95281.00
2023-05-05T03:04:31.001Z,95283.00
2023-05-05T03:05:30.127Z,95279.00
2023-05-05T03:06:30.172Z,95279.00
2023-05-05T03:07:30.206Z,95279.00
2023-05-05T03:08:30.272Z,95279.00
2023-05-05T03:09:30.282Z,95281.00
2023-05-05T03:10:30.313Z,95281.00
2023-05-05T03:11:30.327Z,95279.00
2023-05-05T03:12:30.385Z,95277.00
2023-05-05T03:13:30.414Z,95275.00
2023-05-05T03:14:33.266Z,95275.00
2023-05-05T03:15:30.427Z,95275.00
2023-05-05T03:16:30.466Z,95277.00
2023-05-05T03:17:30.448Z,95279.00
2023-05-05T03:18:30.405Z,95279.00
2023-05-05T03:19:30.420Z,95279.00
2023-05-05T03:20:30.388Z,95279.00
2023-05-05T03:21:30.390Z,95281.00
2023-05-05T03:22:30.392Z,95281.00
2023-05-05T03:23:30.396Z,95277.00
2023-05-05T03:24:30.390Z,95277.00
2023-05-05T03:25:30.361Z,95275.00
2023-05-05T03:26:30.360Z,95275.00
2023-05-05T03:27:30.384Z,95275.00
2023-05-05T03:28:30.335Z,95275.00
2023-05-05T03:29:30.369Z,95275.00
2023-05-05T03:30:30.327Z,95275.00
2023-05-05T03:31:30.411Z,95275.00
2023-05-05T03:32:30.400Z,95279.00
2023-05-05T03:33:30.300Z,95279.00
2023-05-05T03:34:30.320Z,95281.00
2023-05-05T03:35:30.293Z,95281.00
2023-05-05T03:36:30.307Z,95279.00
2023-05-05T03:37:30.289Z,95277.00
2023-05-05T03:38:30.274Z,95279.00
2023-05-05T03:39:30.292Z,95279.00
2023-05-05T03:40:42.971Z,95279.00
2023-05-05T03:41:31.259Z,95281.00
2023-05-05T03:42:30.241Z,95279.00
2023-05-05T03:43:30.243Z,95283.00
2023-05-05T03:44:30.218Z,95281.00
2023-05-05T03:45:30.241Z,95281.00
2023-05-05T03:46:30.215Z,95279.00
2023-05-05T03:47:30.274Z,95283.00
2023-05-05T03:48:30.217Z,95279.00
2023-05-05T03:49:30.188Z,95279.00
2023-05-05T03:50:30.192Z,95277.00
2023-05-05T03:51:30.205Z,95277.00
2023-05-05T03:52:30.174Z,95275.00
2023-05-05T03:53:30.240Z,95275.00
2023-05-05T03:54:30.249Z,95275.00
2023-05-05T03:55:30.289Z,95275.00
2023-05-05T03:56:30.342Z,95277.00
2023-05-05T03:57:30.382Z,95277.00
2023-05-05T03:58:30.403Z,95275.00
2023-05-05T03:59:30.438Z,95273.00
2023-05-05T04:00:30.461Z,95273.00
2023-05-05T04:01:30.505Z,95273.00
2023-05-05T04:02:30.607Z,95273.00
2023-05-05T04:03:30.764Z,95273.00
2023-05-05T04:04:30.659Z,95275.00
2023-05-05T04:05:30.643Z,95277.00
2023-05-05T04:06:30.708Z,95277.00
2023-05-05T04:07:30.756Z,95277.00
2023-05-05T04:08:31.012Z,95277.00
2023-05-05T04:09:30.834Z,95277.00
2023-05-05T04:10:30.849Z,95277.00
2023-05-05T04:11:30.885Z,95275.00
2023-05-05T04:12:30.974Z,95275.00
2023-05-05T04:13:30.976Z,95277.00
2023-05-05T04:14:31.025Z,95277.00
2023-05-05T04:15:31.064Z,95275.00
2023-05-05T04:16:31.192Z,95277.00
2023-05-05T04:17:31.168Z,95279.00
2023-05-05T04:18:31.185Z,95279.00
2023-05-05T04:19:31.183Z,95279.00
2023-05-05T04:20:31.217Z,95279.00
2023-05-05T04:21:31.263Z,95279.00
2023-05-05T04:22:31.315Z,95284.00
2023-05-05T04:23:31.344Z,95283.00
2023-05-05T04:24:31.393Z,95279.00
2023-05-05T04:25:31.427Z,95281.00
2023-05-05T04:26:31.466Z,95281.00
2023-05-05T04:27:31.510Z,95281.00
2023-05-05T04:28:31.517Z,95279.00
2023-05-05T04:29:31.562Z,95281.00
2023-05-05T04:30:31.629Z,95283.00
2023-05-05T04:31:31.660Z,95281.00
2023-05-05T04:32:31.704Z,95284.00
2023-05-05T04:33:31.703Z,95284.00
2023-05-05T04:34:31.726Z,95284.00
2023-05-05T04:35:31.766Z,95284.00
2023-05-05T04:36:31.781Z,95284.00
2023-05-05T04:37:31.847Z,95288.00
2023-05-05T04:38:31.874Z,95288.00
2023-05-05T04:39:31.915Z,95288.00
2023-05-05T04:40:31.934Z,95288.00
2023-05-05T04:41:31.972Z,95290.00
2023-05-05T04:42:32.027Z,95290.00
2023-05-05T04:43:32.024Z,95292.00
2023-05-05T04:44:32.079Z,95290.00
2023-05-05T04:45:32.157Z,95292.00
2023-05-05T04:46:32.175Z,95296.00
2023-05-05T04:47:32.225Z,95292.00
2023-05-05T04:48:32.280Z,95294.00
2023-05-05T04:49:32.287Z,95296.00
2023-05-05T04:50:32.337Z,95294.00
2023-05-05T04:51:32.356Z,95294.00
2023-05-05T04:52:32.387Z,95294.00
2023-05-05T04:53:32.421Z,95292.00
2023-05-05T04:54:32.456Z,95292.00
2023-05-05T04:55:32.484Z,95294.00
2023-05-05T04:56:32.521Z,95296.00
2023-05-05T04:57:32.564Z,95296.00
2023-05-05T04:58:32.596Z,95296.00
2023-05-05T04:59:32.656Z,95300.00
2023-05-05T05:00:32.665Z,95300.00
2023-05-05T05:01:32.667Z,95300.00
2023-05-05T05:02:32.777Z,95304.00
2023-05-05T05:03:32.887Z,95306.00
2023-05-05T05:04:32.756Z,95306.00
2023-05-05T05:05:32.923Z,95310.00
2023-05-05T05:06:32.889Z,95308.00
2023-05-05T05:07:32.940Z,95312.00
2023-05-05T05:08:32.941Z,95308.00
2023-05-05T05:09:32.966Z,95310.00
2023-05-05T05:10:33.060Z,95308.00
2023-05-05T05:11:33.049Z,95312.00
2023-05-05T05:12:33.097Z,95310.00
2023-05-05T05:13:33.105Z,95314.00
2023-05-05T05:14:33.155Z,95314.00
2023-05-05T05:15:33.138Z,95314.00
2023-05-05T05:16:33.224Z,95314.00
2023-05-05T05:17:33.244Z,95310.00
2023-05-05T05:18:33.262Z,95308.00
2023-05-05T05:19:33.303Z,95310.00
2023-05-05T05:20:33.322Z,95308.00
2023-05-05T05:21:33.360Z,95310.00
2023-05-05T05:22:33.379Z,95308.00
2023-05-05T05:23:33.481Z,95308.00
2023-05-05T05:24:33.479Z,95308.00
2023-05-05T05:25:33.526Z,95312.00
2023-05-05T05:26:33.543Z,95308.00
2023-05-05T05:27:33.609Z,95312.00
2023-05-05T05:28:34.006Z,95310.00
2023-05-05T05:29:33.663Z,95306.00
2023-05-05T05:30:33.692Z,95308.00
2023-05-05T05:31:33.743Z,95308.00
2023-05-05T05:32:33.766Z,95308.00
2023-05-05T05:33:34.029Z,95306.00
2023-05-05T05:34:33.802Z,95310.00
2023-05-05T05:35:33.818Z,95312.00
2023-05-05T05:36:33.885Z,95310.00
2023-05-05T05:37:33.884Z,95308.00
2023-05-05T05:38:34.012Z,95310.00
2023-05-05T05:39:33.974Z,95308.00
2023-05-05T05:40:33.996Z,95308.00
2023-05-05T05:41:34.021Z,95310.00
2023-05-05T05:42:34.041Z,95312.00
2023-05-05T05:43:34.093Z,95312.00
2023-05-05T05:44:34.056Z,95314.00
2023-05-05T05:45:34.091Z,95312.00
2023-05-05T05:46:34.218Z,95312.00
2023-05-05T05:47:34.218Z,95312.00
2023-05-05T05:48:34.214Z,95314.00
2023-05-05T05:49:34.238Z,95314.00
2023-05-05T05:50:34.272Z,95318.00
2023-05-05T05:51:34.262Z,95316.00
2023-05-05T05:52:34.295Z,95316.00
2023-05-05T05:53:34.344Z,95316.00
2023-05-05T05:54:34.364Z,95312.00
2023-05-05T05:55:34.332Z,95318.00
2023-05-05T05:56:34.332Z,95318.00
2023-05-05T05:57:34.374Z,95316.00
2023-05-05T05:58:34.524Z,95318.00
2023-05-05T05:59:34.353Z,95314.00
2023-05-05T06:00:34.349Z,95320.00
2023-05-05T06:01:34.386Z,95320.00
2023-05-05T06:02:34.438Z,95320.00
2023-05-05T06:03:34.620Z,95316.00
2023-05-05T06:04:34.562Z,95318.00
2023-05-05T06:05:34.525Z,95318.00
2023-05-05T06:06:34.575Z,95318.00
2023-05-05T06:07:34.603Z,95318.00
2023-05-05T06:08:35.039Z,95318.00
2023-05-05T06:09:34.719Z,95318.00
2023-05-05T06:10:35.127Z,95316.00
2023-05-05T06:11:34.838Z,95316.00
2023-05-05T06:12:34.980Z,95318.00
2023-05-05T06:13:34.957Z,95318.00
2023-05-05T06:14:34.996Z,95316.00
2023-05-05T06:15:35.046Z,95316.00
2023-05-05T06:16:35.154Z,95320.00
2023-05-05T06:17:35.118Z,95320.00
2023-05-05T06:18:35.194Z,95316.00
2023-05-05T06:19:35.206Z,95314.00
2023-05-05T06:20:35.233Z,95316.00
2023-05-05T06:21:35.273Z,95312.00
2023-05-05T06:22:35.291Z,95304.00
2023-05-05T06:23:35.541Z,95314.00
2023-05-05T06:24:35.340Z,95310.00
2023-05-05T06:25:35.387Z,95310.00
2023-05-05T06:26:35.351Z,95310.00
2023-05-05T06:27:35.401Z,95314.00
2023-05-05T06:28:35.427Z,95314.00
2023-05-05T06:29:35.432Z,95310.00
2023-05-05T06:30:35.440Z,95308.00
2023-05-05T06:31:35.468Z,95308.00
2023-05-05T06:32:35.443Z,95312.00
2023-05-05T06:33:35.587Z,95304.00
2023-05-05T06:34:35.445Z,95304.00
2023-05-05T06:35:35.436Z,95304.00
2023-05-05T06:36:35.462Z,95304.00
2023-05-05T06:37:35.403Z,95302.00
2023-05-05T06:38:35.438Z,95302.00
2023-05-05T06:39:35.415Z,95300.00
2023-05-05T06:40:35.482Z,95298.00
2023-05-05T06:41:35.514Z,95298.00
2023-05-05T06:42:35.572Z,95296.00
2023-05-05T06:43:35.638Z,95290.00
2023-05-05T06:44:35.752Z,95292.00
2023-05-05T06:45:35.757Z,95292.00
2023-05-05T06:46:35.914Z,95292.00
2023-05-05T06:47:35.903Z,95288.00
2023-05-05T06:48:35.941Z,95286.00
2023-05-05T06:49:36.020Z,95288.00
2023-05-05T06:50:36.076Z,95284.00
2023-05-05T06:51:36.103Z,95286.00
2023-05-05T06:52:36.139Z,95286.00
2023-05-05T06:53:36.266Z,95283.00
2023-05-05T06:54:36.275Z,95281.00
2023-05-05T06:55:36.331Z,95284.00
2023-05-05T06:56:36.397Z,95283.00
2023-05-05T06:57:36.461Z,95283.00
2023-05-05T06:58:36.564Z,95281.00
2023-05-05T06:59:36.524Z,95286.00
2023-05-05T07:00:36.636Z,95283.00
2023-05-05T07:01:36.657Z,95284.00
2023-05-05T07:02:36.749Z,95283.00
2023-05-05T07:03:37.087Z,95284.00
2023-05-05T07:04:36.804Z,95284.00
2023-05-05T07:05:36.919Z,95281.00
2023-05-05T07:06:36.979Z,95281.00
2023-05-05T07:07:37.010Z,95281.00
2023-05-05T07:08:37.099Z,95281.00
2023-05-05T07:09:37.297Z,95279.00
2023-05-05T07:10:39.106Z,95277.00
2023-05-05T07:11:37.243Z,95277.00
2023-05-05T07:12:37.347Z,95279.00
2023-05-05T07:13:37.542Z,95273.00
2023-05-05T07:14:37.438Z,95271.00
2023-05-05T07:15:37.440Z,95271.00
2023-05-05T07:16:37.564Z,95271.00
2023-05-05T07:17:37.587Z,95267.00
2023-05-05T07:18:37.637Z,95267.00
2023-05-05T07:19:37.635Z,95263.00
2023-05-05T07:20:37.660Z,95263.00
2023-05-05T07:21:37.694Z,95261.00
2023-05-05T07:22:37.764Z,95261.00
2023-05-05T07:23:37.756Z,95261.00
2023-05-05T07:24:37.812Z,95259.00
2023-05-05T07:25:37.883Z,95257.00
2023-05-05T07:26:37.819Z,95257.00
2023-05-05T07:27:37.840Z,95259.00
2023-05-05T07:28:37.902Z,95255.00
2023-05-05T07:29:37.908Z,95253.00
2023-05-05T07:30:37.941Z,95257.00
2023-05-05T07:31:38.069Z,95257.00
2023-05-05T07:32:38.002Z,95255.00
2023-05-05T07:33:38.004Z,95253.00
2023-05-05T07:34:38.030Z,95253.00
2023-05-05T07:35:38.049Z,95249.00
2023-05-05T07:36:38.057Z,95247.00
2023-05-05T07:37:38.169Z,95247.00
2023-05-05T07:38:38.596Z,95249.00
2023-05-05T07:39:38.121Z,95245.00
2023-05-05T07:40:38.156Z,95245.00
2023-05-05T07:41:38.315Z,95243.00
2023-05-05T07:42:38.248Z,95243.00
2023-05-05T07:43:39.347Z,95243.00
2023-05-05T07:44:38.321Z,95237.00
2023-05-05T07:45:38.380Z,95241.00
2023-05-05T07:46:38.418Z,95239.00
2023-05-05T07:47:38.428Z,95235.00
2023-05-05T07:48:38.456Z,95233.00
2023-05-05T07:49:38.394Z,95233.00
2023-05-05T07:50:38.463Z,95232.00
2023-05-05T07:51:38.450Z,95233.00
2023-05-05T07:52:48.390Z,95230.00
2023-05-05T07:53:39.504Z,95228.00
2023-05-05T07:54:38.492Z,95228.00
2023-05-05T07:55:38.498Z,95222.00
2023-05-05T07:56:38.491Z,95222.00
2023-05-05T07:57:38.545Z,95224.00
2023-05-05T07:58:38.527Z,95222.00
2023-05-05T07:59:38.480Z,95220.00
2023-05-05T08:00:38.470Z,95216.00
2023-05-05T08:01:38.466Z,95212.00
2023-05-05T08:02:38.514Z,95220.00
2023-05-05T08:03:38.684Z,95212.00
2023-05-05T08:04:38.656Z,95216.00
2023-05-05T08:05:38.456Z,95218.00
2023-05-05T08:06:38.472Z,95220.00
2023-05-05T08:07:38.555Z,95218.00
2023-05-05T08:08:38.547Z,95220.00
2023-05-05T08:09:38.570Z,95218.00
2023-05-05T08:10:38.625Z,95214.00
2023-05-05T08:11:38.605Z,95214.00
2023-05-05T08:12:38.661Z,95214.00
2023-05-05T08:13:38.804Z,95210.00
2023-05-05T08:14:38.668Z,95214.00
2023-05-05T08:15:38.733Z,95208.00
2023-05-05T08:16:38.788Z,95206.00
2023-05-05T08:17:38.873Z,95204.00
2023-05-05T08:18:38.812Z,95206.00
2023-05-05T08:19:38.805Z,95202.00
2023-05-05T08:20:38.838Z,95202.00
2023-05-05T08:21:38.837Z,95202.00
2023-05-05T08:22:38.873Z,95198.00
2023-05-05T08:23:38.908Z,95196.00
2023-05-05T08:24:39.105Z,95198.00
2023-05-05T08:25:38.915Z,95196.00
2023-05-05T08:26:38.971Z,95196.00
2023-05-05T08:27:38.975Z,95200.00
2023-05-05T08:28:39.009Z,95200.00
2023-05-05T08:29:39.158Z,95194.00
2023-05-05T08:30:39.077Z,95194.00
2023-05-05T08:31:39.179Z,95194.00
2023-05-05T08:32:39.184Z,95189.00
2023-05-05T08:33:39.141Z,95185.00
2023-05-05T08:34:39.589Z,95185.00
2023-05-05T08:35:39.188Z,95183.00
2023-05-05T08:36:39.198Z,95183.00
2023-05-05T08:37:39.257Z,95179.00
2023-05-05T08:38:39.315Z,95175.00
2023-05-05T08:39:39.372Z,95177.00
2023-05-05T08:40:39.409Z,95173.00
2023-05-05T08:41:39.513Z,95169.00
2023-05-05T08:42:39.779Z,95173.00
2023-05-05T08:43:39.560Z,95171.00
2023-05-05T08:44:39.612Z,95165.00
2023-05-05T08:45:39.688Z,95169.00
2023-05-05T08:46:39.731Z,95163.00
2023-05-05T08:47:39.786Z,95163.00
2023-05-05T08:48:39.746Z,95163.00
2023-05-05T08:49:39.757Z,95159.00
2023-05-05T08:50:39.760Z,95157.00
2023-05-05T08:51:39.767Z,95157.00
2023-05-05T08:52:39.839Z,95157.00
2023-05-05T08:53:39.870Z,95153.00
2023-05-05T08:54:40.104Z,95155.00
2023-05-05T08:55:39.894Z,95157.00
2023-05-05T08:56:39.926Z,95143.00
2023-05-05T08:57:39.960Z,95151.00
2023-05-05T08:58:39.976Z,95151.00
2023-05-05T08:59:40.040Z,95151.00
2023-05-05T09:00:40.106Z,95143.00
2023-05-05T09:01:40.352Z,95141.00
2023-05-05T09:02:40.129Z,95143.00
2023-05-05T09:03:40.096Z,95139.00
2023-05-05T09:04:40.621Z,95139.00
2023-05-05T09:05:40.243Z,95133.00
2023-05-05T09:06:40.244Z,95133.00
2023-05-05T09:07:40.285Z,95133.00
2023-05-05T09:08:40.356Z,95131.00
2023-05-05T09:09:40.454Z,95133.00
2023-05-05T09:10:40.474Z,95129.00
2023-05-05T09:11:40.457Z,95128.00
2023-05-05T09:12:40.491Z,95128.00
2023-05-05T09:13:40.447Z,95128.00
2023-05-05T09:14:40.626Z,95128.00
2023-05-05T09:15:40.447Z,95126.00
2023-05-05T09:16:40.542Z,95124.00
2023-05-05T09:17:40.647Z,95126.00
2023-05-05T09:18:40.484Z,95120.00
2023-05-05T09:19:40.503Z,95122.00
2023-05-05T09:20:40.500Z,95120.00
2023-05-05T09:21:40.531Z,95118.00
2023-05-05T09:22:40.566Z,95118.00
2023-05-05T09:23:40.573Z,95114.00
2023-05-05T09:24:40.599Z,95112.00
2023-05-05T09:25:40.610Z,95112.00
2023-05-05T09:26:40.596Z,95112.00
2023-05-05T09:27:40.651Z,95112.00
2023-05-05T09:28:40.650Z,95108.00
2023-05-05T09:29:40.685Z,95104.00
2023-05-05T09:30:40.782Z,95104.00
2023-05-05T09:31:40.748Z,95102.00
2023-05-05T09:32:40.800Z,95102.00
2023-05-05T09:33:40.845Z,95100.00
2023-05-05T09:34:41.132Z,95098.00
2023-05-05T09:35:40.857Z,95096.00
2023-05-05T09:36:40.906Z,95094.00
2023-05-05T09:37:40.919Z,95094.00
2023-05-05T09:38:40.929Z,95092.00
2023-05-05T09:39:41.139Z,95092.00
2023-05-05T09:40:40.971Z,95092.00
2023-05-05T09:41:40.982Z,95090.00
2023-05-05T09:42:41.025Z,95092.00
2023-05-05T09:43:41.039Z,95087.00
2023-05-05T09:44:41.119Z,95087.00
2023-05-05T09:45:41.077Z,95089.00
2023-05-05T09:46:41.161Z,95083.00
2023-05-05T09:47:41.225Z,95085.00
2023-05-05T09:48:41.138Z,95079.00
2023-05-05T09:49:41.703Z,95079.00
2023-05-05T09:50:41.202Z,95077.00
2023-05-05T09:51:41.241Z,95077.00
2023-05-05T09:52:41.275Z,95075.00
2023-05-05T09:53:41.270Z,95075.00
2023-05-05T09:54:41.309Z,95075.00
2023-05-05T09:55:41.328Z,95075.00
2023-05-05T09:56:41.293Z,95075.00
2023-05-05T09:57:41.335Z,95073.00
2023-05-05T09:58:41.350Z,95071.00
2023-05-05T09:59:41.304Z,95071.00
2023-05-05T10:00:41.360Z,95069.00
2023-05-05T10:01:41.439Z,95069.00
2023-05-05T10:02:41.438Z,95067.00
2023-05-05T10:03:41.509Z,95063.00
2023-05-05T10:04:41.573Z,95065.00
2023-05-05T10:05:41.605Z,95059.00
2023-05-05T10:06:41.732Z,95057.00
2023-05-05T10:07:41.805Z,95061.00
2023-05-05T10:08:41.816Z,95061.00
2023-05-05T10:09:41.902Z,95063.00
2023-05-05T10:10:41.909Z,95059.00
2023-05-05T10:11:42.025Z,95059.00
2023-05-05T10:12:42.047Z,95055.00
2023-05-05T10:13:42.267Z,95053.00
2023-05-05T10:14:42.601Z,95049.00
2023-05-05T10:15:42.221Z,95047.00
2023-05-05T10:16:42.263Z,95045.00
2023-05-05T10:17:50.841Z,95047.00
2023-05-05T10:18:43.270Z,95047.00
2023-05-05T10:19:42.637Z,95041.00
2023-05-05T10:20:42.215Z,95037.00
2023-05-05T10:21:42.387Z,95037.00
2023-05-05T10:22:42.188Z,95035.00
2023-05-05T10:23:42.205Z,95032.00
2023-05-05T10:24:42.200Z,95034.00
2023-05-05T10:25:42.210Z,95034.00
2023-05-05T10:26:42.174Z,95032.00
2023-05-05T10:27:42.202Z,95028.00
2023-05-05T10:28:42.197Z,95030.00
2023-05-05T10:29:42.655Z,95028.00
2023-05-05T10:30:42.264Z,95024.00
2023-05-05T10:31:42.290Z,95022.00
2023-05-05T10:33:42.377Z,95018.00
2023-05-05T10:34:42.636Z,95014.00
2023-05-05T10:35:42.257Z,95014.00
2023-05-05T10:36:42.297Z,95016.00
2023-05-05T10:37:42.275Z,95008.00
2023-05-05T10:38:42.261Z,95010.00
2023-05-05T10:39:42.620Z,95010.00
2023-05-05T10:40:42.264Z,95004.00
2023-05-05T10:41:42.225Z,95002.00
2023-05-05T10:42:42.358Z,94998.00
2023-05-05T10:43:42.249Z,94998.00
2023-05-05T10:44:42.659Z,94994.00
2023-05-05T10:45:42.361Z,94994.00
2023-05-05T10:46:42.275Z,94994.00
2023-05-05T10:47:42.227Z,94992.00
2023-05-05T10:48:42.214Z,94990.00
2023-05-05T10:49:42.672Z,94990.00
2023-05-05T10:50:42.217Z,94990.00
2023-05-05T10:51:42.171Z,94988.00
2023-05-05T10:52:42.153Z,94983.00
2023-05-05T10:53:42.235Z,94985.00
2023-05-05T10:54:42.146Z,94981.00
2023-05-05T10:55:42.157Z,94979.00
2023-05-05T10:56:42.124Z,94975.00
2023-05-05T10:57:42.141Z,94975.00
2023-05-05T10:58:58.307Z,94975.00
2023-05-05T10:59:43.172Z,94973.00
2023-05-05T11:00:42.092Z,94973.00
2023-05-05T11:01:42.107Z,94963.00
2023-05-05T11:02:42.165Z,94965.00
2023-05-05T11:03:42.082Z,94961.00
2023-05-05T11:04:42.091Z,94963.00
2023-05-05T11:05:42.104Z,94959.00
2023-05-05T11:06:42.064Z,94959.00
2023-05-05T11:07:42.056Z,94959.00
2023-05-05T11:08:42.050Z,94957.00
2023-05-05T11:09:42.133Z,94955.00
2023-05-05T11:10:42.131Z,94947.00
2023-05-05T11:11:42.225Z,94945.00
2023-05-05T11:12:42.224Z,94943.00
2023-05-05T11:13:42.253Z,94941.00
2023-05-05T11:14:42.625Z,94941.00
2023-05-05T11:15:42.320Z,94941.00
2023-05-05T11:16:42.432Z,94938.00
2023-05-05T11:17:42.452Z,94938.00
2023-05-05T11:18:42.474Z,94932.00
2023-05-05T11:19:42.666Z,94930.00
2023-05-05T11:20:42.438Z,94930.00
2023-05-05T11:21:42.446Z,94928.00
2023-05-05T11:22:42.466Z,94926.00
2023-05-05T11:23:42.445Z,94918.00
2023-05-05T11:24:42.667Z,94918.00
2023-05-05T11:25:42.511Z,94916.00
2023-05-05T11:26:42.457Z,94916.00
2023-05-05T11:27:42.461Z,94918.00
2023-05-05T11:28:42.451Z,94916.00
2023-05-05T11:29:42.443Z,94914.00
2023-05-05T11:30:42.515Z,94912.00
2023-05-05T11:31:42.496Z,94910.00
2023-05-05T11:32:42.514Z,94910.00
2023-05-05T11:33:42.442Z,94914.00
2023-05-05T11:34:42.462Z,94908.00
2023-05-05T11:35:42.467Z,94906.00
2023-05-05T11:36:42.461Z,94906.00
2023-05-05T11:37:42.490Z,94900.00
2023-05-05T11:38:42.501Z,94900.00
2023-05-05T11:39:42.495Z,94898.00
2023-05-05T11:40:42.509Z,94894.00
2023-05-05T11:41:42.573Z,94894.00
2023-05-05T11:42:42.556Z,94887.00
2023-05-05T11:43:42.560Z,94885.00
2023-05-05T11:44:42.605Z,94885.00
2023-05-05T11:45:42.602Z,94881.00